Terminal Aerodrome Forecast
Issued by NWS

Home | Current Version | Previous Version | Text Only | Print | Product List | Glossary On
Versions: 1 2 3 4 5 6 7 8 9 10 11 12 13 14 15
000
FTUS43 KAPX 192300
TAFTVC
TAF
KTVC 192320Z 2000/2024 19009KT P6SM SCT040 OVC120 WS007/19030KT
     FM200500 21010KT P6SM -SHRA OVC035 WS007/20035KT
     FM201300 23010G18KT 6SM -SHRA OVC018=

USA.gov is the U.S. government's official web portal to all federal, state and local government web resources and services.